Time;durP1;ratioP1;P1;durP2;ratioP2;P2;SDS_P1;SDS_P2;PMS_P1;PMS_P2;Temp;Humidity;BMP_temperature;BMP_pressure;BME280_temperature;BME280_humidity;BME280_pressure;Samples;Min_cycle;Max_cycle;Signal;HPM_P1;HPM_P2
2022/03/28 00:01:14;;;;;;;33.58;7.50;;;6.30;99.90;;;;;;5103509;27;20485;-72
2022/03/28 00:03:40;;;;;;;73.22;9.85;;;6.30;99.90;;;;;;5099255;28;20116;-71
2022/03/28 00:06:09;;;;;;;67.50;8.55;;;6.40;99.90;;;;;;5105686;28;20042;-72
2022/03/28 00:08:35;;;;;;;43.45;8.27;;;6.40;99.90;;;;;;5098692;28;20051;-71
2022/03/28 00:11:00;;;;;;;80.53;9.40;;;6.30;99.90;;;;;;5101958;28;20055;-71
2022/03/28 00:13:26;;;;;;;64.40;10.32;;;6.30;99.90;;;;;;5100015;28;20075;-71
2022/03/28 00:15:53;;;;;;;51.70;8.75;;;6.30;99.90;;;;;;5106178;28;20100;-71
2022/03/28 00:18:19;;;;;;;54.80;8.43;;;6.20;99.90;;;;;;5104125;28;20127;-71
2022/03/28 00:20:46;;;;;;;55.38;8.68;;;6.30;99.90;;;;;;5103817;28;20118;-71
2022/03/28 00:23:13;;;;;;;45.63;10.30;;;6.30;99.90;;;;;;5103446;28;20147;-71
2022/03/28 00:25:40;;;;;;;71.35;7.95;;;6.20;99.90;;;;;;5100470;28;20093;-72
2022/03/28 00:28:07;;;;;;;76.25;8.07;;;6.30;99.90;;;;;;5087006;28;20088;-72
2022/03/28 00:30:33;;;;;;;45.08;8.10;;;6.30;99.90;;;;;;5101968;28;20452;-71
2022/03/28 00:32:59;;;;;;;39.17;7.50;;;6.30;99.90;;;;;;5108345;28;20054;-72
2022/03/28 00:35:26;;;;;;;30.88;8.70;;;6.30;99.90;;;;;;5096905;28;20052;-71
2022/03/28 00:37:51;;;;;;;43.00;8.68;;;6.40;99.90;;;;;;5098228;28;20536;-71
2022/03/28 00:40:17;;;;;;;46.72;9.13;;;6.40;99.90;;;;;;5097720;28;20040;-73
2022/03/28 00:42:43;;;;;;;63.83;11.18;;;6.30;99.90;;;;;;5098902;27;20032;-72
2022/03/28 00:45:09;;;;;;;59.20;11.32;;;6.30;99.90;;;;;;5089652;28;20039;-72
2022/03/28 00:47:35;;;;;;;55.67;12.75;;;6.30;99.90;;;;;;5101557;28;20089;-72
2022/03/28 00:50:01;;;;;;;55.67;14.27;;;6.30;99.90;;;;;;5091212;28;20718;-73
2022/03/28 00:52:27;;;;;;;56.55;14.60;;;6.40;99.90;;;;;;5102389;28;20086;-72
2022/03/28 00:54:53;;;;;;;84.03;17.42;;;6.30;99.90;;;;;;5102071;28;20047;-72
2022/03/28 00:57:18;;;;;;;94.72;15.93;;;6.40;99.90;;;;;;5099418;28;20048;-72
2022/03/28 00:59:44;;;;;;;69.53;15.38;;;6.40;99.90;;;;;;5130880;27;20044;-71
2022/03/28 01:02:10;;;;;;;70.85;15.55;;;6.30;99.90;;;;;;5100876;28;20039;-72
2022/03/28 01:04:37;;;;;;;64.60;15.45;;;6.30;99.90;;;;;;5100879;28;20035;-71
2022/03/28 01:07:06;;;;;;;63.75;17.35;;;6.30;99.90;;;;;;5097873;28;20043;-72
2022/03/28 01:09:32;;;;;;;81.75;17.83;;;6.30;99.90;;;;;;5099093;28;20043;-71
2022/03/28 01:11:59;;;;;;;151.98;20.58;;;6.30;99.90;;;;;;5101322;28;20040;-71
2022/03/28 01:14:26;;;;;;;96.72;19.75;;;6.30;99.90;;;;;;5103851;28;20047;-71
2022/03/28 01:19:36;;;;;;;195.52;24.55;;;6.20;99.90;;;;;;5099405;28;20052;-71
2022/03/28 01:22:02;;;;;;;153.18;22.20;;;6.20;99.90;;;;;;5102669;28;20039;-72
2022/03/28 01:24:28;;;;;;;167.85;25.67;;;6.20;99.90;;;;;;5101786;28;20089;-71
2022/03/28 01:26:55;;;;;;;181.60;25.23;;;6.20;99.90;;;;;;5103958;28;20028;-72
2022/03/28 01:29:21;;;;;;;249.95;29.27;;;6.20;99.90;;;;;;5100894;28;20089;-71
2022/03/28 01:31:46;;;;;;;128.25;26.50;;;6.20;99.90;;;;;;5100332;28;20078;-72
2022/03/28 01:34:17;;;;;;;91.88;23.63;;;6.30;99.90;;;;;;5131757;27;20066;-72
2022/03/28 01:36:45;;;;;;;182.68;26.95;;;6.30;99.90;;;;;;5101626;27;20393;-71
2022/03/28 01:39:12;;;;;;;228.82;29.15;;;6.30;99.90;;;;;;5099433;28;20395;-72
2022/03/28 01:41:37;;;;;;;247.75;27.92;;;6.20;99.90;;;;;;5104650;28;20155;-72
2022/03/28 01:44:05;;;;;;;227.65;26.20;;;6.30;99.90;;;;;;5104928;28;20131;-71
2022/03/28 01:46:30;;;;;;;147.43;25.73;;;6.30;99.90;;;;;;5099513;28;20052;-72
2022/03/28 01:48:56;;;;;;;225.50;26.17;;;6.30;99.90;;;;;;5097927;28;20160;-72
2022/03/28 01:51:22;;;;;;;267.90;28.00;;;6.20;99.90;;;;;;5131255;27;20075;-72
2022/03/28 01:53:47;;;;;;;242.90;25.55;;;6.20;99.90;;;;;;5098381;28;20140;-72
2022/03/28 01:56:13;;;;;;;200.32;25.08;;;6.30;99.90;;;;;;5102420;28;20495;-72
2022/03/28 01:58:38;;;;;;;256.95;29.92;;;6.20;99.90;;;;;;5099857;27;20101;-72
2022/03/28 02:01:04;;;;;;;188.73;27.85;;;6.30;99.90;;;;;;5128047;27;20031;-72
2022/03/28 02:03:30;;;;;;;121.50;24.17;;;6.20;99.90;;;;;;5099409;28;20042;-73
2022/03/28 02:05:55;;;;;;;216.73;24.83;;;6.40;99.90;;;;;;5126927;27;20044;-73
2022/03/28 02:08:21;;;;;;;187.55;27.33;;;6.30;99.90;;;;;;5098642;27;20052;-72
2022/03/28 02:10:47;;;;;;;182.38;27.38;;;6.30;99.90;;;;;;5098791;27;20043;-73
2022/03/28 02:13:12;;;;;;;199.30;29.33;;;6.20;99.90;;;;;;5129627;27;20044;-72
2022/03/28 02:15:38;;;;;;;244.77;28.40;;;6.30;99.90;;;;;;5101111;28;20032;-73
2022/03/28 02:18:05;;;;;;;155.32;28.88;;;6.30;99.90;;;;;;5102453;28;20039;-72
2022/03/28 02:20:30;;;;;;;213.15;30.67;;;6.30;99.90;;;;;;5099114;28;20185;-72
2022/03/28 02:22:56;;;;;;;333.70;34.72;;;6.30;99.90;;;;;;5099481;28;20127;-72
2022/03/28 02:25:21;;;;;;;301.58;32.47;;;6.30;99.90;;;;;;5097685;28;20043;-74
2022/03/28 02:27:47;;;;;;;387.85;35.42;;;6.30;99.90;;;;;;5100966;28;20140;-73
2022/03/28 02:30:14;;;;;;;260.48;32.50;;;6.30;99.90;;;;;;5100074;28;20043;-74
2022/03/28 02:32:40;;;;;;;206.98;29.38;;;6.30;99.90;;;;;;5100335;28;20047;-73
2022/03/28 02:35:07;;;;;;;304.95;33.00;;;6.30;99.90;;;;;;5099501;28;20082;-73
2022/03/28 02:37:33;;;;;;;236.15;33.95;;;6.30;99.90;;;;;;5112739;27;20055;-73
2022/03/28 02:39:59;;;;;;;201.85;29.38;;;6.30;99.90;;;;;;5099812;28;20690;-73
2022/03/28 02:42:25;;;;;;;196.50;30.95;;;6.30;99.90;;;;;;5097973;28;20035;-72
2022/03/28 02:44:51;;;;;;;123.07;27.02;;;6.30;99.90;;;;;;5101207;28;20118;-73
2022/03/28 02:47:21;;;;;;;118.82;28.65;;;6.30;99.90;;;;;;5099009;28;20120;-73
2022/03/28 02:49:47;;;;;;;137.45;31.88;;;6.20;99.90;;;;;;5097928;28;20056;-73
2022/03/28 02:52:13;;;;;;;189.02;33.20;;;6.20;99.90;;;;;;5129080;27;20043;-73
2022/03/28 02:54:38;;;;;;;167.80;31.58;;;6.20;99.90;;;;;;5098258;28;20082;-73
2022/03/28 02:57:04;;;;;;;181.75;32.35;;;6.20;99.90;;;;;;5098323;28;20067;-73
2022/03/28 02:59:30;;;;;;;189.43;31.70;;;6.10;99.90;;;;;;5097530;28;20077;-73
2022/03/28 03:01:56;;;;;;;205.80;36.63;;;6.10;99.90;;;;;;5097541;28;20067;-73
2022/03/28 03:04:21;;;;;;;230.50;34.88;;;6.10;99.90;;;;;;5104859;28;20088;-73
2022/03/28 03:06:47;;;;;;;172.63;34.30;;;6.20;99.90;;;;;;5099096;28;20031;-74
2022/03/28 03:09:12;;;;;;;203.50;36.58;;;6.20;99.90;;;;;;5133339;27;20095;-73
2022/03/28 03:11:40;;;;;;;184.88;34.97;;;6.20;99.90;;;;;;5134948;27;20131;-73
2022/03/28 03:14:06;;;;;;;110.43;32.20;;;6.20;99.90;;;;;;5102317;27;20111;-73
2022/03/28 03:16:32;;;;;;;162.95;36.60;;;6.20;99.90;;;;;;5102634;28;20617;-73
2022/03/28 03:18:58;;;;;;;98.30;32.05;;;6.30;99.90;;;;;;5105927;28;20040;-74
2022/03/28 03:21:23;;;;;;;102.25;32.00;;;6.30;99.90;;;;;;5105453;28;20131;-73
2022/03/28 03:23:49;;;;;;;127.10;34.58;;;6.30;99.90;;;;;;5100260;28;20039;-73
2022/03/28 03:26:15;;;;;;;196.38;31.90;;;6.20;99.90;;;;;;5100795;28;20047;-73
2022/03/28 03:28:40;;;;;;;166.13;30.38;;;6.20;99.90;;;;;;5102431;27;20665;-73
2022/03/28 03:31:06;;;;;;;160.63;35.08;;;6.20;99.90;;;;;;5097849;28;20394;-73
2022/03/28 03:33:32;;;;;;;139.88;33.63;;;6.20;99.90;;;;;;5101687;28;20074;-73
2022/03/28 03:36:00;;;;;;;144.63;35.17;;;6.20;99.90;;;;;;5103318;28;20039;-73
2022/03/28 03:38:26;;;;;;;158.70;36.15;;;6.20;99.90;;;;;;5102987;28;20046;-73
2022/03/28 03:40:53;;;;;;;186.88;36.30;;;6.20;99.90;;;;;;5102702;28;20040;-73
2022/03/28 03:43:18;;;;;;;138.10;35.90;;;6.20;99.90;;;;;;5082841;28;20031;-73
2022/03/28 03:45:44;;;;;;;204.65;37.67;;;6.20;99.90;;;;;;5106940;27;20057;-74
2022/03/28 03:48:09;;;;;;;219.65;36.83;;;6.20;99.90;;;;;;5102992;27;20403;-73
2022/03/28 03:50:35;;;;;;;166.73;37.60;;;6.20;99.90;;;;;;5105734;28;20036;-73
2022/03/28 03:53:01;;;;;;;110.53;33.30;;;6.20;99.90;;;;;;5131005;27;20132;-74
2022/03/28 03:55:26;;;;;;;147.48;35.17;;;6.20;99.90;;;;;;5102572;28;20043;-73
2022/03/28 03:57:52;;;;;;;94.63;32.88;;;6.20;99.90;;;;;;5100985;28;20059;-73
2022/03/28 04:00:17;;;;;;;79.05;32.95;;;6.20;99.90;;;;;;5104567;28;20035;-73
2022/03/28 04:02:43;;;;;;;101.10;32.47;;;6.30;99.90;;;;;;5100957;27;20036;-73
2022/03/28 04:05:09;;;;;;;112.47;31.20;;;6.30;99.90;;;;;;5102799;28;20138;-73
2022/03/28 04:07:35;;;;;;;79.38;30.25;;;6.30;99.90;;;;;;5098776;27;20122;-73
2022/03/28 04:10:02;;;;;;;67.00;28.02;;;6.30;99.90;;;;;;5099025;28;20058;-73
2022/03/28 04:12:28;;;;;;;100.05;30.45;;;6.40;99.90;;;;;;5098867;28;20043;-73
2022/03/28 04:14:57;;;;;;;58.60;28.05;;;6.40;99.90;;;;;;5131530;27;20433;-74
2022/03/28 04:17:23;;;;;;;74.93;28.20;;;6.40;99.90;;;;;;5132493;27;20074;-74
2022/03/28 04:19:49;;;;;;;41.53;22.35;;;6.40;99.90;;;;;;5106959;28;20830;-74
2022/03/28 04:22:14;;;;;;;48.65;25.17;;;6.50;99.90;;;;;;5100426;28;20044;-74
2022/03/28 04:24:40;;;;;;;62.92;23.30;;;6.30;99.90;;;;;;5100221;27;20536;-74
2022/03/28 04:27:06;;;;;;;31.42;20.77;;;6.30;99.90;;;;;;5104461;27;20098;-74
2022/03/28 04:29:32;;;;;;;32.00;20.25;;;6.30;99.90;;;;;;5097329;27;20130;-74
2022/03/28 04:31:57;;;;;;;35.33;21.40;;;6.30;99.90;;;;;;5101152;27;20104;-74
2022/03/28 04:34:23;;;;;;;32.63;19.90;;;6.30;99.90;;;;;;5101226;27;20079;-74
2022/03/28 04:36:49;;;;;;;31.85;21.80;;;6.20;99.90;;;;;;5099341;27;20039;-74
2022/03/28 04:39:14;;;;;;;31.52;20.85;;;6.20;99.90;;;;;;5100189;27;20132;-74
2022/03/28 04:41:40;;;;;;;31.40;20.45;;;6.10;99.90;;;;;;5102646;27;20414;-74
2022/03/28 04:44:06;;;;;;;27.02;19.48;;;6.10;99.90;;;;;;5132118;27;20044;-74
2022/03/28 04:46:31;;;;;;;27.30;19.17;;;6.10;99.90;;;;;;5104178;27;20043;-74
2022/03/28 04:48:57;;;;;;;25.50;18.75;;;6.10;99.90;;;;;;5103795;28;20075;-74
2022/03/28 04:51:22;;;;;;;29.02;18.63;;;6.10;99.90;;;;;;5099870;28;20043;-74
2022/03/28 04:53:48;;;;;;;30.60;21.30;;;6.00;99.90;;;;;;5098950;28;20040;-74
2022/03/28 04:56:14;;;;;;;27.40;20.10;;;6.00;99.90;;;;;;5128445;27;20699;-74
2022/03/28 04:58:40;;;;;;;31.27;21.58;;;6.00;99.90;;;;;;5100522;27;20174;-74
2022/03/28 05:01:05;;;;;;;33.60;22.73;;;6.00;99.90;;;;;;5098728;27;20036;-74
2022/03/28 05:03:31;;;;;;;32.63;22.17;;;6.00;99.90;;;;;;5101423;27;20071;-74
2022/03/28 05:05:56;;;;;;;32.75;23.70;;;5.90;99.90;;;;;;5096200;28;20039;-74
2022/03/28 05:08:22;;;;;;;36.20;23.40;;;5.80;99.90;;;;;;5098173;27;20592;-74
2022/03/28 05:10:48;;;;;;;39.75;25.27;;;5.90;99.90;;;;;;5096857;28;20134;-74
2022/03/28 05:13:14;;;;;;;40.10;24.17;;;5.90;99.90;;;;;;5100236;28;20050;-74
2022/03/28 05:15:39;;;;;;;37.30;25.55;;;5.80;99.90;;;;;;5097975;27;20541;-74
2022/03/28 05:18:05;;;;;;;38.33;25.20;;;5.80;99.90;;;;;;5098302;28;20108;-74
2022/03/28 05:20:31;;;;;;;38.55;26.63;;;5.70;99.90;;;;;;5100781;28;20106;-73
2022/03/28 05:22:57;;;;;;;43.83;28.52;;;5.80;99.90;;;;;;5097202;28;20539;-73
2022/03/28 05:25:22;;;;;;;46.03;28.88;;;5.70;99.90;;;;;;5099400;28;20088;-73
2022/03/28 05:27:48;;;;;;;47.53;29.98;;;5.80;99.90;;;;;;5130936;27;20099;-73
2022/03/28 05:30:15;;;;;;;50.08;30.58;;;5.80;99.90;;;;;;5104171;27;20040;-73
2022/03/28 05:32:42;;;;;;;43.92;28.30;;;5.70;99.90;;;;;;5101790;28;20052;-73
2022/03/28 05:35:08;;;;;;;51.83;27.48;;;5.80;99.90;;;;;;5102656;28;20039;-73
2022/03/28 05:37:35;;;;;;;43.08;28.00;;;5.80;99.90;;;;;;5101559;28;20036;-73
2022/03/28 05:40:02;;;;;;;39.25;27.25;;;5.80;99.90;;;;;;5101297;28;20048;-73
2022/03/28 05:42:27;;;;;;;41.42;27.80;;;5.80;99.90;;;;;;5098482;28;20044;-73
2022/03/28 05:44:54;;;;;;;45.72;27.90;;;5.80;99.90;;;;;;5100372;28;20515;-73
2022/03/28 05:51:01;;;;;;;44.92;26.95;;;5.80;99.90;;;;;;5102407;28;20035;-74
2022/03/28 05:53:26;;;;;;;38.85;24.20;;;5.80;99.90;;;;;;5099507;27;20632;-73
2022/03/28 05:55:52;;;;;;;33.67;21.20;;;5.90;99.90;;;;;;5091325;27;20039;-73
2022/03/28 05:58:18;;;;;;;34.33;19.75;;;5.90;99.90;;;;;;5129537;27;20058;-73
2022/03/28 06:00:44;;;;;;;40.67;22.02;;;5.90;99.90;;;;;;5097079;27;20032;-73
2022/03/28 06:03:09;;;;;;;35.97;21.13;;;6.20;99.90;;;;;;5100265;27;20027;-73
2022/03/28 06:05:38;;;;;;;41.17;21.65;;;5.80;99.90;;;;;;5101081;27;20024;-73
2022/03/28 06:08:05;;;;;;;45.90;21.20;;;5.80;99.90;;;;;;5094164;28;20035;-73
2022/03/28 06:10:31;;;;;;;65.05;21.98;;;5.80;99.90;;;;;;5096235;28;20051;-73
2022/03/28 06:12:56;;;;;;;43.55;20.15;;;5.80;99.90;;;;;;5097218;28;20096;-72
2022/03/28 06:15:23;;;;;;;43.53;22.85;;;5.80;99.90;;;;;;5098459;28;20046;-73
2022/03/28 06:17:50;;;;;;;38.33;21.85;;;5.80;99.90;;;;;;5093533;28;20127;-73
2022/03/28 06:20:16;;;;;;;43.75;20.63;;;5.80;99.90;;;;;;5129433;27;20146;-73
2022/03/28 06:22:42;;;;;;;48.28;19.80;;;5.70;99.90;;;;;;5095785;28;20060;-73
2022/03/28 06:25:08;;;;;;;64.45;20.30;;;5.80;99.90;;;;;;5097204;28;20047;-73
2022/03/28 06:27:40;;;;;;;58.15;19.98;;;5.80;99.90;;;;;;5094814;27;20080;-73
2022/03/28 06:30:11;;;;;;;51.70;18.23;;;5.90;99.90;;;;;;5093680;27;22004;-72
2022/03/28 06:32:38;;;;;;;41.97;17.75;;;5.90;99.90;;;;;;5096206;28;20122;-73
2022/03/28 06:35:05;;;;;;;81.00;18.50;;;5.90;99.90;;;;;;5097688;27;20042;-73
2022/03/28 06:37:42;;;;;;;39.67;14.73;;;5.90;99.90;;;;;;5099521;28;20039;-72
2022/03/28 06:40:08;;;;;;;26.75;12.88;;;5.90;99.90;;;;;;5091818;28;20032;-73
2022/03/28 06:42:34;;;;;;;23.42;10.85;;;5.80;99.90;;;;;;5097090;28;20073;-73
2022/03/28 06:45:01;;;;;;;23.55;12.15;;;5.80;99.90;;;;;;5100181;28;20381;-73
2022/03/28 06:47:27;;;;;;;18.27;9.30;;;6.10;99.90;;;;;;5093082;28;20044;-73
2022/03/28 06:49:53;;;;;;;11.55;5.97;;;5.80;99.90;;;;;;5102675;28;20036;-73
2022/03/28 06:52:19;;;;;;;10.25;5.90;;;5.70;99.90;;;;;;5093165;28;20024;-73
2022/03/28 06:54:45;;;;;;;11.07;6.00;;;5.70;99.90;;;;;;5097869;28;20027;-72
2022/03/28 06:57:11;;;;;;;8.15;4.95;;;5.70;99.90;;;;;;5095029;28;20112;-72
2022/03/28 06:59:36;;;;;;;7.93;4.90;;;5.60;99.90;;;;;;5097510;28;20573;-72
2022/03/28 07:02:02;;;;;;;7.45;4.65;;;5.60;99.90;;;;;;5098664;28;20335;-72
2022/03/28 07:04:28;;;;;;;8.38;4.88;;;5.70;99.90;;;;;;5101199;28;20046;-72
2022/03/28 07:06:54;;;;;;;13.15;4.57;;;5.70;99.90;;;;;;5094753;28;20035;-73
2022/03/28 07:09:20;;;;;;;11.52;4.95;;;5.70;99.90;;;;;;5095581;28;20212;-71
2022/03/28 07:11:46;;;;;;;10.77;4.97;;;5.70;99.90;;;;;;5094796;28;20560;-72
2022/03/28 07:14:12;;;;;;;7.45;4.85;;;5.60;99.90;;;;;;5095710;28;20034;-72
2022/03/28 07:16:38;;;;;;;8.32;4.70;;;5.70;99.90;;;;;;5095466;28;20050;-72
2022/03/28 07:19:04;;;;;;;9.73;4.95;;;5.80;99.90;;;;;;5098742;28;20115;-72
2022/03/28 07:21:30;;;;;;;7.93;4.60;;;5.70;99.90;;;;;;5093657;28;20040;-72
2022/03/28 07:23:56;;;;;;;8.25;4.45;;;5.80;99.90;;;;;;5100207;28;20162;-72
2022/03/28 07:26:22;;;;;;;7.90;4.60;;;5.80;99.90;;;;;;5095732;28;20673;-72
2022/03/28 07:28:48;;;;;;;5.80;4.05;;;5.90;99.90;;;;;;5097841;27;20035;-72
2022/03/28 07:31:14;;;;;;;5.45;3.50;;;6.00;99.90;;;;;;5095795;28;20584;-72
2022/03/28 07:33:41;;;;;;;6.22;4.10;;;5.90;99.90;;;;;;5094938;28;20048;-72
2022/03/28 07:36:08;;;;;;;9.65;4.03;;;5.90;99.90;;;;;;5094595;28;20044;-71
2022/03/28 07:38:35;;;;;;;6.45;4.07;;;5.90;99.90;;;;;;5096673;28;20444;-72
2022/03/28 07:41:02;;;;;;;5.63;3.83;;;5.90;99.90;;;;;;5082033;28;20064;-71
2022/03/28 07:43:27;;;;;;;7.07;4.38;;;5.90;99.90;;;;;;5101300;28;20040;-71
2022/03/28 07:45:54;;;;;;;6.18;3.92;;;6.00;99.90;;;;;;5098780;28;20439;-72
2022/03/28 07:48:23;;;;;;;7.22;4.53;;;5.90;99.90;;;;;;5092568;28;20638;-72
2022/03/28 07:50:49;;;;;;;8.20;5.32;;;6.00;99.90;;;;;;5096525;27;20043;-71
2022/03/28 07:53:16;;;;;;;9.73;5.53;;;6.00;99.90;;;;;;5098678;27;20040;-71
2022/03/28 07:55:43;;;;;;;11.65;6.45;;;6.10;99.90;;;;;;5101123;27;20047;-72
2022/03/28 07:58:09;;;;;;;9.95;6.68;;;6.10;99.90;;;;;;5099622;28;20075;-72
2022/03/28 08:00:37;;;;;;;14.60;7.63;;;6.10;99.90;;;;;;5102494;27;20039;-71
2022/03/28 08:03:03;;;;;;;11.20;6.38;;;6.20;99.90;;;;;;5091193;28;20093;-72
2022/03/28 08:05:29;;;;;;;11.13;6.47;;;6.20;99.90;;;;;;5099126;28;20039;-72
2022/03/28 08:07:56;;;;;;;10.43;6.80;;;6.20;99.90;;;;;;5095655;28;20090;-72
2022/03/28 08:10:22;;;;;;;12.65;7.32;;;6.20;99.90;;;;;;5126910;27;20476;-72
2022/03/28 08:12:49;;;;;;;11.20;7.10;;;6.20;99.90;;;;;;5099868;27;20076;-72
2022/03/28 08:15:16;;;;;;;11.38;6.57;;;6.20;99.90;;;;;;5097014;27;20074;-72
2022/03/28 08:17:42;;;;;;;10.40;6.95;;;6.30;99.90;;;;;;5099859;27;20077;-72
2022/03/28 08:20:11;;;;;;;12.75;7.82;;;6.30;99.90;;;;;;5101373;27;20043;-72
2022/03/28 08:22:40;;;;;;;14.13;8.07;;;6.40;99.90;;;;;;5102019;27;20039;-72
2022/03/28 08:25:07;;;;;;;13.20;8.75;;;6.50;99.90;;;;;;5101224;27;20032;-72
2022/03/28 08:27:33;;;;;;;14.18;9.40;;;6.50;99.90;;;;;;5096333;27;20103;-72
2022/03/28 08:29:59;;;;;;;15.32;9.77;;;6.50;99.90;;;;;;5099387;27;20036;-72
2022/03/28 08:32:25;;;;;;;18.60;10.02;;;6.60;99.90;;;;;;5095904;28;20602;-72
2022/03/28 08:34:51;;;;;;;14.55;9.55;;;6.60;99.90;;;;;;5099009;27;20040;-72
2022/03/28 08:37:17;;;;;;;18.10;11.10;;;6.70;99.90;;;;;;5097375;28;20118;-72
2022/03/28 08:39:44;;;;;;;18.88;10.98;;;6.70;99.90;;;;;;5097954;27;20051;-73
2022/03/28 08:42:14;;;;;;;16.63;10.70;;;6.80;99.90;;;;;;5099185;27;20040;-73
2022/03/28 08:44:41;;;;;;;17.75;10.65;;;6.90;99.90;;;;;;5096853;27;20044;-73
2022/03/28 08:47:09;;;;;;;20.30;11.20;;;6.90;99.90;;;;;;5102246;28;20455;-73
2022/03/28 08:49:38;;;;;;;16.70;10.30;;;6.90;99.90;;;;;;5098574;28;20044;-71
2022/03/28 08:52:07;;;;;;;24.45;13.27;;;6.90;99.90;;;;;;5100077;27;20054;-68
2022/03/28 08:54:32;;;;;;;17.33;10.65;;;7.00;99.90;;;;;;5130925;27;20039;-71
2022/03/28 08:56:58;;;;;;;15.70;10.93;;;7.00;99.90;;;;;;5097218;28;20043;-68
2022/03/28 08:59:24;;;;;;;16.42;11.35;;;7.10;99.90;;;;;;5103079;27;20043;-71
2022/03/28 09:01:50;;;;;;;19.25;11.45;;;7.10;99.90;;;;;;5100919;28;20038;-71
2022/03/28 09:04:16;;;;;;;17.50;11.35;;;7.00;99.90;;;;;;5085606;28;20071;-70
2022/03/28 09:06:43;;;;;;;17.25;10.70;;;7.00;99.90;;;;;;5100504;27;20124;-71
2022/03/28 09:09:10;;;;;;;17.98;11.10;;;6.90;99.90;;;;;;5098945;28;20036;-71
2022/03/28 09:11:36;;;;;;;20.63;12.98;;;7.00;99.90;;;;;;5127593;27;20044;-71
2022/03/28 09:14:02;;;;;;;18.15;12.55;;;7.00;99.90;;;;;;5093386;27;20040;-71
2022/03/28 09:16:31;;;;;;;24.50;13.80;;;7.00;99.90;;;;;;5099260;27;20047;-72
2022/03/28 09:18:57;;;;;;;19.80;12.93;;;7.00;99.90;;;;;;5101439;27;20043;-71
2022/03/28 09:21:25;;;;;;;21.33;13.65;;;7.00;99.90;;;;;;5099127;27;20681;-72
2022/03/28 09:23:52;;;;;;;18.98;13.73;;;7.10;99.90;;;;;;5099786;27;20048;-72
2022/03/28 09:26:23;;;;;;;18.85;12.15;;;7.20;99.90;;;;;;5100769;27;20058;-72
2022/03/28 09:29:00;;;;;;;21.40;13.85;;;7.30;99.90;;;;;;5097589;28;20121;-71
2022/03/28 09:31:31;;;;;;;19.90;12.32;;;7.20;99.90;;;;;;5100074;27;20375;-72
2022/03/28 09:34:01;;;;;;;18.77;12.05;;;7.30;99.90;;;;;;5101794;27;20051;-72
2022/03/28 09:36:38;;;;;;;22.10;12.75;;;7.20;99.90;;;;;;5101124;27;20043;-72
2022/03/28 09:39:05;;;;;;;18.58;12.77;;;7.20;99.90;;;;;;5095962;28;20043;-72
2022/03/28 09:41:32;;;;;;;18.05;11.85;;;7.30;99.90;;;;;;5097001;27;20059;-72
2022/03/28 09:43:58;;;;;;;18.25;11.63;;;7.30;99.90;;;;;;5100219;27;20118;-72
2022/03/28 09:46:29;;;;;;;19.92;12.88;;;7.30;99.90;;;;;;5100438;28;20131;-72
2022/03/28 09:48:57;;;;;;;17.60;11.60;;;7.40;99.90;;;;;;5128659;27;20040;-72
2022/03/28 09:51:27;;;;;;;16.88;11.85;;;7.40;99.90;;;;;;5099952;28;20164;-72
2022/03/28 09:53:53;;;;;;;17.10;12.25;;;7.50;99.90;;;;;;5098148;28;20040;-73
2022/03/28 09:56:18;;;;;;;17.10;11.65;;;7.60;99.90;;;;;;5099135;28;20396;-73
2022/03/28 09:59:01;;;;;;;15.52;12.18;;;7.60;99.90;;;;;;5097728;28;20040;-72
2022/03/28 10:01:35;;;;;;;16.50;11.55;;;7.70;99.90;;;;;;5096894;28;20550;-72
2022/03/28 10:04:11;;;;;;;16.77;12.10;;;7.70;99.90;;;;;;5101702;28;20201;-73
2022/03/28 10:06:39;;;;;;;17.13;11.93;;;7.80;99.90;;;;;;5096513;28;20044;-72
2022/03/28 10:09:06;;;;;;;16.98;11.98;;;7.80;99.90;;;;;;5099236;28;20413;-72
2022/03/28 10:11:32;;;;;;;16.05;11.32;;;7.80;99.90;;;;;;5098874;27;20506;-73
2022/03/28 10:13:58;;;;;;;15.70;11.40;;;7.80;99.90;;;;;;5098463;27;20085;-73
2022/03/28 10:16:24;;;;;;;14.68;12.02;;;7.90;99.90;;;;;;5099022;27;20040;-73
2022/03/28 10:18:50;;;;;;;17.13;11.68;;;8.00;99.90;;;;;;5095430;28;20039;-73
2022/03/28 10:21:21;;;;;;;17.80;12.07;;;8.00;99.90;;;;;;5097819;27;20054;-73
2022/03/28 10:24:08;;;;;;;15.60;11.65;;;8.10;99.90;;;;;;5099213;28;20044;-73
2022/03/28 10:26:38;;;;;;;14.50;11.32;;;8.10;99.90;;;;;;5098487;28;20024;-73
2022/03/28 10:29:08;;;;;;;16.67;12.70;;;8.30;99.90;;;;;;5092019;28;20475;-73
2022/03/28 10:31:53;;;;;;;17.70;11.98;;;8.40;99.90;;;;;;5099592;28;20439;-72
2022/03/28 10:34:41;;;;;;;16.60;11.82;;;8.50;99.90;;;;;;5097811;28;20117;-73
2022/03/28 10:37:32;;;;;;;15.27;12.32;;;8.50;99.90;;;;;;5128377;27;20119;-73
2022/03/28 10:40:22;;;;;;;21.23;12.77;;;8.50;99.90;;;;;;5098811;28;20097;-73
2022/03/28 10:42:55;;;;;;;15.93;11.68;;;8.60;99.90;;;;;;5098527;28;20039;-73
2022/03/28 10:45:30;;;;;;;16.83;12.40;;;8.60;99.90;;;;;;5087732;28;20082;-73
2022/03/28 10:47:58;;;;;;;18.57;13.23;;;8.70;99.90;;;;;;5095610;28;20502;-72
2022/03/28 10:50:32;;;;;;;21.70;12.95;;;8.60;99.90;;;;;;5101099;28;20055;-73
2022/03/28 10:53:04;;;;;;;16.58;12.70;;;8.60;99.90;;;;;;5098774;28;20546;-73
2022/03/28 10:55:41;;;;;;;20.48;14.75;;;8.70;99.90;;;;;;5092860;28;20040;-73
2022/03/28 10:58:23;;;;;;;21.98;13.50;;;8.60;99.90;;;;;;5100032;28;20379;-73
2022/03/28 11:01:07;;;;;;;15.88;12.85;;;8.60;99.90;;;;;;5094087;28;20084;-73
2022/03/28 11:03:38;;;;;;;17.45;14.40;;;8.70;99.90;;;;;;5094156;28;20040;-73
2022/03/28 11:06:05;;;;;;;19.33;12.98;;;8.90;99.90;;;;;;5095132;28;20028;-73
2022/03/28 11:08:42;;;;;;;17.25;13.13;;;9.00;99.90;;;;;;5099613;28;20617;-73
2022/03/28 11:11:24;;;;;;;17.75;13.75;;;9.20;99.90;;;;;;5093237;28;20036;-73
2022/03/28 11:14:10;;;;;;;15.80;13.32;;;9.30;99.90;;;;;;5098432;28;20063;-73
2022/03/28 11:16:40;;;;;;;;;;;9.40;99.90;;;;;;5099861;28;20036;-73
2022/03/28 11:19:28;;;;;;;17.17;12.63;;;9.40;99.90;;;;;;5096770;28;19934;-73
2022/03/28 11:22:02;;;;;;;14.57;13.05;;;9.50;99.90;;;;;;5097503;28;20404;-74
2022/03/28 11:25:01;;;;;;;14.40;12.70;;;9.60;99.90;;;;;;5097057;28;20048;-73
2022/03/28 11:27:34;;;;;;;14.00;12.10;;;9.70;99.90;;;;;;5079666;28;20051;-73
2022/03/28 11:30:06;;;;;;;15.88;12.07;;;9.90;99.90;;;;;;5099201;28;20044;-73
2022/03/28 11:32:33;;;;;;;16.50;13.25;;;10.10;99.90;;;;;;5130698;27;20039;-74
2022/03/28 11:34:59;;;;;;;14.02;12.18;;;10.20;99.90;;;;;;5101115;28;20135;-74
2022/03/28 11:37:27;;;;;;;14.77;13.13;;;10.30;99.90;;;;;;5120489;27;20574;-73
2022/03/28 11:40:03;;;;;;;14.50;11.93;;;10.30;99.90;;;;;;5093571;28;20039;-73
2022/03/28 11:42:34;;;;;;;16.33;12.45;;;10.30;99.90;;;;;;5087655;28;20074;-73
2022/03/28 11:45:08;;;;;;;13.20;11.82;;;10.10;99.90;;;;;;5084937;28;20036;-73
2022/03/28 11:47:39;;;;;;;12.98;11.70;;;10.20;99.90;;;;;;5087146;27;20044;-73
2022/03/28 11:50:08;;;;;;;16.60;13.50;;;10.30;99.90;;;;;;5084350;28;20047;-73
2022/03/28 11:52:34;;;;;;;13.15;11.70;;;10.30;99.90;;;;;;5087908;28;20055;-73
2022/03/28 11:55:00;;;;;;;14.30;12.80;;;10.30;99.90;;;;;;5087671;28;20039;-74
2022/03/28 12:00:19;;;;;;;13.80;12.02;;;10.80;99.90;;;;;;5083979;27;20083;-75
2022/03/28 12:02:56;;;;;;;12.38;11.13;;;10.60;99.90;;;;;;5087434;27;20103;-74
2022/03/28 12:05:37;;;;;;;12.90;11.60;;;10.70;99.90;;;;;;5085235;27;20036;-74
2022/03/28 12:08:13;;;;;;;13.27;11.88;;;10.60;99.90;;;;;;5086819;28;20043;-74
2022/03/28 12:10:52;;;;;;;13.60;12.25;;;10.90;99.90;;;;;;5086977;27;20032;-74
2022/03/28 12:13:23;;;;;;;13.10;11.77;;;11.20;99.90;;;;;;5090184;27;20115;-75
2022/03/28 12:15:51;;;;;;;12.95;11.65;;;11.30;99.90;;;;;;5087109;28;20031;-74
2022/03/28 12:18:20;;;;;;;11.52;10.43;;;11.10;99.90;;;;;;5086237;28;20036;-74
2022/03/28 12:20:53;;;;;;;11.77;10.57;;;11.20;99.90;;;;;;5087218;28;20036;-75
2022/03/28 12:23:23;;;;;;;14.50;11.05;;;11.10;99.90;;;;;;5088062;27;20044;-74
2022/03/28 12:25:53;;;;;;;12.65;11.32;;;11.20;99.90;;;;;;5087301;28;20071;-74
2022/03/28 12:28:34;;;;;;;12.50;11.30;;;11.30;99.90;;;;;;5099329;28;20070;-70
2022/03/28 12:31:03;;;;;;;12.40;11.23;;;11.10;99.90;;;;;;5131366;27;20047;-75
2022/03/28 12:33:49;;;;;;;12.77;11.13;;;11.30;99.90;;;;;;5097989;28;20051;-75
2022/03/28 12:36:22;;;;;;;12.05;10.00;;;11.60;99.90;;;;;;5096469;28;20444;-74
2022/03/28 12:38:57;;;;;;;12.05;10.82;;;12.00;99.90;;;;;;5097100;28;20500;-74
2022/03/28 12:41:23;;;;;;;11.52;10.25;;;12.20;99.90;;;;;;5100292;28;20054;-70
2022/03/28 12:43:51;;;;;;;13.23;10.25;;;12.30;99.90;;;;;;5117077;27;20043;-77
2022/03/28 12:46:17;;;;;;;16.42;11.07;;;12.40;99.90;;;;;;5085250;28;20094;-72
2022/03/28 12:48:47;;;;;;;12.27;10.98;;;12.60;99.90;;;;;;5083097;28;20045;-73